createdAt,value
2023-08-09T00:01:38.217Z,1.40
2023-08-09T00:04:12.978Z,1.48
2023-08-09T00:06:40.578Z,1.48
2023-08-09T00:09:08.194Z,1.10
2023-08-09T00:11:35.816Z,1.40
2023-08-09T00:14:04.802Z,1.33
2023-08-09T00:16:32.429Z,1.40
2023-08-09T00:19:00.069Z,1.40
2023-08-09T00:21:27.679Z,1.20
2023-08-09T00:23:55.227Z,1.23
2023-08-09T00:26:22.829Z,1.33
2023-08-09T00:28:50.462Z,1.40
2023-08-09T00:31:19.819Z,1.48
2023-08-09T00:33:47.483Z,1.35
2023-08-09T00:36:16.613Z,1.45
2023-08-09T00:38:44.258Z,1.20
2023-08-09T00:41:12.005Z,1.25
2023-08-09T00:43:39.744Z,1.38
2023-08-09T00:46:07.805Z,1.42
2023-08-09T00:48:36.838Z,1.75
2023-08-09T00:51:05.024Z,1.60
2023-08-09T00:53:33.438Z,1.30
2023-08-09T00:56:01.289Z,1.42
2023-08-09T00:58:28.853Z,1.10
2023-08-09T01:00:56.685Z,1.50
2023-08-09T01:03:24.738Z,1.40
2023-08-09T01:06:04.663Z,1.20
2023-08-09T01:08:36.655Z,1.30
2023-08-09T01:11:09.425Z,1.15
2023-08-09T01:13:40.409Z,1.80
2023-08-09T01:16:08.541Z,1.30
2023-08-09T01:18:37.481Z,1.40
2023-08-09T01:21:06.665Z,1.30
2023-08-09T01:23:36.006Z,1.13
2023-08-09T01:26:05.470Z,1.10
2023-08-09T01:28:33.390Z,1.27
2023-08-09T01:31:01.028Z,1.50
2023-08-09T01:33:28.820Z,1.27
2023-08-09T01:35:59.703Z,1.50
2023-08-09T01:38:30.914Z,1.38
2023-08-09T01:41:00.305Z,1.27
2023-08-09T01:43:29.699Z,1.55
2023-08-09T01:45:57.509Z,1.55
2023-08-09T01:48:25.240Z,1.30
2023-08-09T01:50:53.024Z,1.33
2023-08-09T01:53:20.657Z,1.42
2023-08-09T01:55:48.308Z,1.50
2023-08-09T01:58:17.202Z,1.10
2023-08-09T02:00:44.859Z,1.25
2023-08-09T02:03:12.598Z,1.42
2023-08-09T02:05:40.423Z,1.33
2023-08-09T02:08:08.312Z,1.10
2023-08-09T02:10:36.303Z,1.48
2023-08-09T02:13:04.689Z,1.23
2023-08-09T02:15:33.691Z,1.35
2023-08-09T02:18:01.432Z,1.40
2023-08-09T02:20:30.273Z,1.35
2023-08-09T02:22:59.367Z,1.60
2023-08-09T02:25:27.518Z,1.60
2023-08-09T02:27:55.196Z,1.20
2023-08-09T02:30:23.838Z,1.40
2023-08-09T02:32:52.856Z,1.40
2023-08-09T02:35:20.530Z,1.10
2023-08-09T02:37:48.225Z,1.10
2023-08-09T02:40:15.855Z,1.50
2023-08-09T02:42:43.485Z,1.30
2023-08-09T02:45:11.922Z,1.40
2023-08-09T02:47:39.576Z,1.27
2023-08-09T02:50:08.930Z,1.25
2023-08-09T02:52:37.585Z,1.52
2023-08-09T02:55:07.553Z,1.30
2023-08-09T02:57:35.159Z,1.35
2023-08-09T03:00:03.514Z,1.45
2023-08-09T03:02:32.703Z,1.38
2023-08-09T03:05:01.036Z,1.10
2023-08-09T03:07:30.060Z,1.40
2023-08-09T03:09:57.868Z,1.48
2023-08-09T03:12:25.508Z,1.25
2023-08-09T03:14:53.160Z,1.42
2023-08-09T03:17:20.891Z,1.48
2023-08-09T03:19:48.539Z,1.55
2023-08-09T03:22:16.262Z,1.35
2023-08-09T03:24:45.198Z,1.27
2023-08-09T03:27:12.867Z,1.20
2023-08-09T03:29:40.611Z,1.38
2023-08-09T03:32:09.161Z,1.40
2023-08-09T03:34:37.382Z,1.40
2023-08-09T03:37:06.368Z,1.30
2023-08-09T03:39:34.093Z,1.13
2023-08-09T03:42:02.956Z,1.38
2023-08-09T03:44:30.803Z,1.40
2023-08-09T03:46:58.990Z,1.38
2023-08-09T03:49:26.991Z,1.30
2023-08-09T03:54:40.157Z,1.30
2023-08-09T03:57:09.025Z,1.40
2023-08-09T03:59:36.795Z,1.40
2023-08-09T04:02:04.482Z,1.50
2023-08-09T04:04:32.119Z,1.30
2023-08-09T04:07:00.584Z,1.40
2023-08-09T04:09:28.718Z,1.42
2023-08-09T04:11:56.741Z,1.40
2023-08-09T04:14:26.847Z,1.33
2023-08-09T04:16:54.407Z,1.30
2023-08-09T04:19:23.056Z,1.10
2023-08-09T04:22:08.177Z,1.70
2023-08-09T04:24:35.882Z,1.63
2023-08-09T04:27:04.166Z,1.45
2023-08-09T04:29:33.267Z,1.60
2023-08-09T04:32:00.860Z,1.38
2023-08-09T04:34:28.437Z,1.17
2023-08-09T04:36:56.013Z,1.50
2023-08-09T04:39:24.955Z,1.40
2023-08-09T04:41:52.609Z,1.30
2023-08-09T04:44:20.261Z,1.50
2023-08-09T04:46:49.129Z,1.20
2023-08-09T04:49:16.929Z,1.48
2023-08-09T04:51:44.895Z,1.38
2023-08-09T04:54:12.593Z,1.30
2023-08-09T04:56:40.256Z,1.52
2023-08-09T04:59:07.902Z,1.50
2023-08-09T05:01:35.575Z,1.50
2023-08-09T05:04:04.572Z,1.50
2023-08-09T05:06:32.178Z,1.30
2023-08-09T05:09:00.207Z,1.33
2023-08-09T05:11:27.845Z,1.30
2023-08-09T05:13:55.513Z,1.45
2023-08-09T05:16:25.875Z,1.25
2023-08-09T05:18:53.838Z,1.52
2023-08-09T05:21:22.771Z,1.48
2023-08-09T05:23:50.442Z,1.40
2023-08-09T05:26:18.004Z,1.80
2023-08-09T05:28:45.659Z,3.45
2023-08-09T05:31:13.311Z,3.67
2023-08-09T05:33:41.009Z,3.17
2023-08-09T05:36:08.612Z,2.55
2023-08-09T05:38:37.772Z,1.73
2023-08-09T05:41:05.399Z,1.60
2023-08-09T05:43:33.025Z,1.80
2023-08-09T05:46:01.133Z,1.50
2023-08-09T05:48:28.838Z,1.80
2023-08-09T05:50:56.431Z,1.80
2023-08-09T05:53:24.021Z,1.75
2023-08-09T05:55:53.443Z,1.73
2023-08-09T05:58:21.687Z,1.50
2023-08-09T06:00:50.097Z,1.70
2023-08-09T06:03:17.823Z,1.65
2023-08-09T06:05:45.750Z,1.50
2023-08-09T06:08:14.154Z,1.50
2023-08-09T06:10:41.757Z,1.60
2023-08-09T06:13:10.674Z,1.55
2023-08-09T06:15:38.345Z,1.38
2023-08-09T06:18:06.283Z,1.52
2023-08-09T06:20:34.118Z,1.48
2023-08-09T06:23:01.918Z,1.67
2023-08-09T06:25:29.516Z,1.60
2023-08-09T06:27:58.697Z,2.03
2023-08-09T06:30:27.569Z,1.60
2023-08-09T06:32:55.411Z,1.23
2023-08-09T06:35:23.135Z,1.65
2023-08-09T06:37:53.657Z,1.50
2023-08-09T06:40:24.022Z,1.58
2023-08-09T06:42:51.574Z,1.50
2023-08-09T06:45:23.054Z,1.45
2023-08-09T06:47:52.065Z,1.33
2023-08-09T06:50:19.885Z,1.13
2023-08-09T06:52:47.469Z,1.15
2023-08-09T06:55:15.510Z,1.40
2023-08-09T06:57:43.149Z,1.73
2023-08-09T07:00:16.934Z,1.38
2023-08-09T07:02:47.686Z,1.17
2023-08-09T07:05:22.529Z,1.50
2023-08-09T07:07:53.016Z,1.42
2023-08-09T07:10:20.841Z,1.63
2023-08-09T07:12:48.690Z,1.10
2023-08-09T07:15:16.338Z,1.17
2023-08-09T07:17:44.134Z,1.58
2023-08-09T07:20:12.433Z,1.35
2023-08-09T07:22:41.408Z,1.05
2023-08-09T07:25:10.317Z,1.33
2023-08-09T07:27:41.919Z,1.15
2023-08-09T07:30:10.585Z,1.30
2023-08-09T07:32:39.757Z,1.25
2023-08-09T07:35:08.348Z,1.42
2023-08-09T07:37:36.740Z,1.30
2023-08-09T07:40:06.572Z,1.25
2023-08-09T07:42:35.864Z,1.30
2023-08-09T07:45:03.508Z,1.40
2023-08-09T07:47:33.308Z,1.60
2023-08-09T07:50:00.970Z,1.90
2023-08-09T07:52:28.650Z,1.30
2023-08-09T07:54:56.506Z,1.42
2023-08-09T07:57:25.916Z,1.20
2023-08-09T07:59:55.971Z,1.20
2023-08-09T08:02:25.889Z,1.35
2023-08-09T08:04:53.529Z,1.10
2023-08-09T08:07:21.223Z,1.35
2023-08-09T08:09:48.846Z,1.25
2023-08-09T08:12:22.926Z,1.30
2023-08-09T08:14:53.119Z,1.25
2023-08-09T08:17:20.935Z,1.20
2023-08-09T08:19:48.664Z,1.38
2023-08-09T08:22:16.265Z,1.23
2023-08-09T08:24:43.944Z,1.20
2023-08-09T08:27:11.622Z,1.40
2023-08-09T08:29:39.206Z,1.27
2023-08-09T08:32:08.608Z,1.30
2023-08-09T08:34:36.424Z,1.20
2023-08-09T08:37:05.624Z,1.15
2023-08-09T08:39:36.717Z,1.13
2023-08-09T08:42:05.291Z,1.20
2023-08-09T08:44:33.442Z,1.30
2023-08-09T08:47:01.407Z,1.30
2023-08-09T08:49:32.248Z,1.15
2023-08-09T08:52:00.874Z,1.00
2023-08-09T08:54:28.990Z,1.25
2023-08-09T08:56:56.915Z,1.40
2023-08-09T08:59:24.715Z,1.10
2023-08-09T09:01:52.749Z,1.42
2023-08-09T09:04:20.449Z,1.20
2023-08-09T09:06:49.460Z,1.15
2023-08-09T09:09:17.058Z,1.20
2023-08-09T09:11:45.282Z,1.30
2023-08-09T09:14:13.334Z,1.38
2023-08-09T09:16:41.701Z,1.10
2023-08-09T09:19:11.258Z,1.33
2023-08-09T09:21:39.183Z,1.30
2023-08-09T09:24:09.361Z,1.30
2023-08-09T09:26:38.140Z,1.10
2023-08-09T09:29:08.626Z,1.10
2023-08-09T09:31:37.564Z,1.15
2023-08-09T09:34:07.943Z,1.08
2023-08-09T09:36:39.194Z,1.42
2023-08-09T09:39:11.803Z,1.38
2023-08-09T09:41:40.239Z,1.10
2023-08-09T09:44:08.053Z,1.20
2023-08-09T09:46:41.688Z,1.25
2023-08-09T09:49:09.866Z,1.00
2023-08-09T09:51:37.733Z,1.10
2023-08-09T09:54:06.542Z,1.00
2023-08-09T09:56:36.801Z,1.13
2023-08-09T09:59:05.200Z,1.30
2023-08-09T10:01:34.084Z,1.02
2023-08-09T10:04:07.493Z,1.00
2023-08-09T10:06:36.674Z,1.15
2023-08-09T10:09:06.013Z,1.08
2023-08-09T10:11:35.743Z,1.15
2023-08-09T10:14:04.790Z,1.15
2023-08-09T10:16:33.355Z,1.20
2023-08-09T10:19:03.530Z,0.90
2023-08-09T10:21:31.581Z,0.82
2023-08-09T10:24:06.909Z,1.08
2023-08-09T10:26:37.477Z,0.90
2023-08-09T10:29:07.738Z,0.98
2023-08-09T10:31:46.304Z,0.90
2023-08-09T10:34:14.385Z,1.00
2023-08-09T10:36:42.008Z,1.00
2023-08-09T10:39:10.392Z,0.95
2023-08-09T10:41:40.746Z,1.10
2023-08-09T10:44:10.029Z,1.10
2023-08-09T10:46:37.657Z,0.93
2023-08-09T10:49:05.478Z,0.88
2023-08-09T10:51:34.314Z,0.90
2023-08-09T10:54:03.938Z,1.00
2023-08-09T10:56:34.836Z,1.00
2023-08-09T10:59:06.763Z,0.93
2023-08-09T11:01:35.068Z,1.10
2023-08-09T11:04:02.814Z,1.00
2023-08-09T11:06:34.566Z,1.00
2023-08-09T11:09:07.631Z,0.95
2023-08-09T11:11:35.572Z,1.00
2023-08-09T11:14:03.497Z,0.93
2023-08-09T11:16:34.089Z,1.20
2023-08-09T11:19:03.226Z,1.20
2023-08-09T11:21:38.744Z,1.02
2023-08-09T11:24:08.350Z,1.02
2023-08-09T11:26:37.187Z,1.13
2023-08-09T11:29:05.104Z,1.25
2023-08-09T11:31:34.921Z,1.20
2023-08-09T11:34:02.513Z,0.98
2023-08-09T11:36:30.628Z,1.23
2023-08-09T11:38:58.479Z,1.10
2023-08-09T11:41:26.400Z,1.08
2023-08-09T11:43:54.112Z,1.08
2023-08-09T11:46:23.221Z,1.10
2023-08-09T11:48:52.928Z,0.90
2023-08-09T11:51:22.005Z,1.10
2023-08-09T11:53:50.879Z,0.98
2023-08-09T11:56:20.413Z,1.05
2023-08-09T11:58:49.038Z,1.15
2023-08-09T12:01:17.807Z,0.90
2023-08-09T12:03:45.780Z,0.90
2023-08-09T12:06:15.274Z,1.40
2023-08-09T12:08:43.110Z,1.10
2023-08-09T12:11:15.784Z,1.20
2023-08-09T12:13:43.416Z,1.00
2023-08-09T12:16:11.183Z,1.10
2023-08-09T12:18:39.025Z,1.10
2023-08-09T12:21:08.518Z,1.00
2023-08-09T12:23:38.396Z,0.95
2023-08-09T12:26:08.506Z,0.82
2023-08-09T12:28:36.474Z,0.95
2023-08-09T12:31:04.089Z,0.98
2023-08-09T12:33:31.780Z,0.70
2023-08-09T12:35:59.496Z,1.20
2023-08-09T12:38:27.171Z,1.00
2023-08-09T12:40:57.339Z,0.90
2023-08-09T12:43:26.340Z,0.93
2023-08-09T12:45:54.059Z,0.98
2023-08-09T12:48:21.749Z,1.00
2023-08-09T12:50:49.360Z,0.90
2023-08-09T12:53:17.023Z,0.90
2023-08-09T12:55:45.129Z,1.02
2023-08-09T12:58:14.014Z,0.82
2023-08-09T13:00:41.682Z,0.88
2023-08-09T13:03:09.597Z,0.98
2023-08-09T13:05:38.677Z,1.10
2023-08-09T13:08:06.402Z,0.73
2023-08-09T13:10:34.557Z,0.90
2023-08-09T13:13:02.170Z,0.90
2023-08-09T13:15:31.089Z,0.98
2023-08-09T13:17:58.735Z,0.70
2023-08-09T13:20:27.613Z,1.02
2023-08-09T13:22:55.205Z,0.88
2023-08-09T13:25:22.812Z,1.10
2023-08-09T13:27:50.429Z,0.60
2023-08-09T13:30:18.118Z,1.02
2023-08-09T13:32:49.239Z,0.98
2023-08-09T13:35:16.934Z,1.08
2023-08-09T13:37:44.580Z,1.00
2023-08-09T13:40:12.779Z,0.95
2023-08-09T13:42:40.600Z,0.80
2023-08-09T13:45:08.529Z,0.90
2023-08-09T13:47:37.060Z,0.95
2023-08-09T13:50:06.687Z,1.00
2023-08-09T13:52:34.549Z,0.90
2023-08-09T13:55:02.159Z,1.00
2023-08-09T13:57:29.816Z,0.80
2023-08-09T13:59:57.420Z,0.80
2023-08-09T14:02:25.093Z,0.80
2023-08-09T14:04:52.695Z,0.88
2023-08-09T14:07:21.684Z,0.90
2023-08-09T14:09:49.331Z,0.77
2023-08-09T14:12:17.041Z,0.70
2023-08-09T14:14:45.002Z,1.05
2023-08-09T14:17:13.026Z,0.75
2023-08-09T14:19:40.850Z,0.90
2023-08-09T14:22:09.157Z,1.10
2023-08-09T14:24:38.037Z,1.30
2023-08-09T14:27:05.853Z,1.20
2023-08-09T14:29:33.655Z,1.10
2023-08-09T14:32:01.631Z,1.13
2023-08-09T14:34:29.382Z,1.15
2023-08-09T14:36:57.629Z,1.20
2023-08-09T14:39:25.786Z,1.00
2023-08-09T14:41:54.663Z,1.10
2023-08-09T14:44:22.246Z,1.10
2023-08-09T14:46:49.877Z,1.02
2023-08-09T14:49:17.512Z,1.33
2023-08-09T14:51:45.118Z,1.10
2023-08-09T14:54:13.403Z,1.00
2023-08-09T14:56:44.516Z,1.00
2023-08-09T14:59:13.409Z,1.00
2023-08-09T15:01:41.592Z,1.25
2023-08-09T15:04:15.158Z,1.20
2023-08-09T15:06:43.995Z,1.15
2023-08-09T15:09:13.135Z,1.00
2023-08-09T15:11:41.202Z,0.93
2023-08-09T15:14:09.857Z,1.05
2023-08-09T15:16:39.336Z,1.05
2023-08-09T15:19:07.032Z,0.80
2023-08-09T15:21:34.682Z,1.30
2023-08-09T15:24:03.042Z,0.82
2023-08-09T15:26:30.701Z,1.20
2023-08-09T15:28:58.346Z,1.10
2023-08-09T15:31:26.067Z,1.20
2023-08-09T15:33:55.124Z,1.08
2023-08-09T15:36:22.812Z,1.05
2023-08-09T15:38:50.398Z,1.20
2023-08-09T15:41:18.005Z,1.23
2023-08-09T15:43:45.632Z,1.17
2023-08-09T15:46:13.560Z,1.55
2023-08-09T15:48:41.219Z,1.33
2023-08-09T15:51:10.423Z,1.23
2023-08-09T15:53:37.978Z,1.35
2023-08-09T15:56:05.819Z,1.23
2023-08-09T15:58:35.293Z,1.27
2023-08-09T16:01:03.252Z,1.20
2023-08-09T16:03:31.033Z,1.20
2023-08-09T16:05:58.890Z,1.25
2023-08-09T16:08:27.776Z,1.23
2023-08-09T16:10:55.423Z,1.17
2023-08-09T16:13:23.397Z,1.52
2023-08-09T16:15:51.040Z,1.20
2023-08-09T16:18:20.639Z,0.90
2023-08-09T16:20:48.326Z,1.15
2023-08-09T16:23:16.746Z,1.50
2023-08-09T16:25:45.911Z,1.27
2023-08-09T16:28:14.163Z,1.30
2023-08-09T16:30:41.965Z,1.40
2023-08-09T16:33:09.698Z,1.20
2023-08-09T16:35:39.445Z,1.35
2023-08-09T16:38:07.148Z,1.30
2023-08-09T16:40:36.165Z,1.27
2023-08-09T16:43:05.185Z,1.50
2023-08-09T16:45:33.234Z,1.40
2023-08-09T16:48:00.948Z,1.30
2023-08-09T16:50:28.581Z,1.48
2023-08-09T16:52:56.384Z,1.30
2023-08-09T16:55:25.131Z,1.00
2023-08-09T16:57:54.817Z,1.40
2023-08-09T17:00:24.046Z,1.75
2023-08-09T17:02:52.249Z,1.33
2023-08-09T17:05:20.642Z,1.80
2023-08-09T17:07:48.235Z,1.40
2023-08-09T17:10:15.933Z,1.30
2023-08-09T17:12:43.553Z,1.52
2023-08-09T17:15:11.266Z,1.40
2023-08-09T17:17:40.241Z,1.30
2023-08-09T17:20:09.954Z,1.30
2023-08-09T17:22:37.796Z,1.60
2023-08-09T17:25:05.681Z,1.50
2023-08-09T17:27:33.529Z,1.23
2023-08-09T17:30:01.135Z,1.35
2023-08-09T17:32:28.921Z,1.20
2023-08-09T17:34:57.821Z,1.30
2023-08-09T17:37:25.701Z,1.23
2023-08-09T17:39:54.582Z,1.38
2023-08-09T17:42:22.352Z,1.30
2023-08-09T17:44:50.667Z,1.30
2023-08-09T17:47:18.261Z,1.40
2023-08-09T17:49:45.987Z,1.35
2023-08-09T17:52:14.868Z,1.60
2023-08-09T17:54:42.516Z,1.50
2023-08-09T17:57:10.162Z,1.70
2023-08-09T17:59:37.871Z,1.27
2023-08-09T18:02:05.506Z,1.35
2023-08-09T18:04:33.138Z,1.90
2023-08-09T18:07:00.862Z,2.53
2023-08-09T18:09:29.860Z,1.65
2023-08-09T18:11:57.542Z,1.90
2023-08-09T18:14:25.217Z,1.70
2023-08-09T18:16:53.128Z,2.10
2023-08-09T18:19:20.700Z,1.70
2023-08-09T18:21:48.292Z,1.65
2023-08-09T18:24:15.919Z,1.83
2023-08-09T18:26:45.070Z,1.60
2023-08-09T18:29:12.720Z,1.40
2023-08-09T18:31:40.810Z,1.60
2023-08-09T18:34:08.579Z,1.48
2023-08-09T18:36:37.369Z,1.60
2023-08-09T18:39:06.111Z,1.60
2023-08-09T18:41:33.776Z,1.30
2023-08-09T18:44:02.649Z,1.40
2023-08-09T18:46:30.239Z,1.83
2023-08-09T18:48:58.224Z,1.60
2023-08-09T18:51:25.920Z,1.42
2023-08-09T18:53:56.165Z,1.70
2023-08-09T18:56:23.771Z,1.58
2023-08-09T18:58:51.478Z,1.42
2023-08-09T19:01:20.446Z,1.52
2023-08-09T19:03:48.183Z,1.60
2023-08-09T19:06:16.034Z,2.00
2023-08-09T19:08:43.658Z,1.70
2023-08-09T19:11:11.374Z,1.83
2023-08-09T19:13:39.082Z,1.60
2023-08-09T19:16:07.819Z,1.75
2023-08-09T19:18:36.788Z,1.80
2023-08-09T19:21:04.949Z,1.67
2023-08-09T19:23:32.683Z,1.92
2023-08-09T19:26:00.321Z,1.70
2023-08-09T19:28:27.916Z,1.80
2023-08-09T19:30:55.647Z,1.73
2023-08-09T19:33:28.204Z,2.00
2023-08-09T19:35:57.114Z,1.48
2023-08-09T19:38:24.843Z,1.70
2023-08-09T19:40:52.403Z,1.40
2023-08-09T19:43:20.090Z,1.60
2023-08-09T19:45:47.721Z,1.55
2023-08-09T19:48:15.393Z,1.70
2023-08-09T19:50:43.328Z,1.83
2023-08-09T19:53:12.279Z,1.60
2023-08-09T19:55:40.153Z,1.77
2023-08-09T19:58:08.069Z,1.45
2023-08-09T20:00:35.830Z,1.40
2023-08-09T20:03:03.652Z,1.65
2023-08-09T20:05:34.922Z,1.70
2023-08-09T20:08:05.143Z,1.40
2023-08-09T20:10:36.502Z,1.48
2023-08-09T20:13:04.735Z,1.73
2023-08-09T20:15:32.411Z,1.40
2023-08-09T20:18:04.713Z,1.55
2023-08-09T20:20:32.839Z,1.90
2023-08-09T20:23:00.658Z,1.60
2023-08-09T20:25:31.474Z,2.05
2023-08-09T20:28:02.688Z,1.50
2023-08-09T20:30:30.872Z,1.50
2023-08-09T20:32:58.670Z,1.50
2023-08-09T20:35:26.643Z,1.80
2023-08-09T20:37:54.590Z,1.67
2023-08-09T20:40:22.324Z,1.52
2023-08-09T20:42:50.467Z,1.40
2023-08-09T20:45:19.467Z,1.77
2023-08-09T20:47:47.189Z,1.40
2023-08-09T20:50:14.849Z,1.65
2023-08-09T20:52:42.464Z,1.60
2023-08-09T20:55:10.245Z,1.65
2023-08-09T20:57:37.952Z,1.42
2023-08-09T21:00:07.135Z,1.40
2023-08-09T21:02:36.171Z,1.48
2023-08-09T21:05:04.030Z,1.45
2023-08-09T21:07:33.015Z,1.20
2023-08-09T21:10:00.627Z,1.42
2023-08-09T21:12:28.310Z,1.70
2023-08-09T21:14:56.054Z,1.67
2023-08-09T21:17:23.891Z,1.55
2023-08-09T21:19:53.039Z,1.60
2023-08-09T21:22:20.890Z,1.30
2023-08-09T21:27:19.743Z,1.42
2023-08-09T21:29:49.001Z,1.40
2023-08-09T21:32:17.063Z,1.80
2023-08-09T21:34:44.840Z,1.52
2023-08-09T21:37:13.892Z,1.40
2023-08-09T21:39:41.706Z,1.50
2023-08-09T21:42:09.270Z,1.50
2023-08-09T21:44:36.879Z,1.48
2023-08-09T21:47:04.532Z,1.63
2023-08-09T21:49:32.209Z,1.80
2023-08-09T21:51:59.816Z,1.42
2023-08-09T21:54:28.729Z,1.50
2023-08-09T21:56:56.363Z,1.52
2023-08-09T21:59:23.938Z,1.45
2023-08-09T22:01:51.587Z,1.50
2023-08-09T22:04:19.265Z,1.50
2023-08-09T22:06:46.875Z,1.73
2023-08-09T22:09:14.499Z,1.55
2023-08-09T22:11:47.857Z,1.40
2023-08-09T22:14:15.956Z,1.23
2023-08-09T22:16:43.716Z,1.50
2023-08-09T22:19:11.495Z,1.77
2023-08-09T22:21:47.266Z,1.60
2023-08-09T22:24:20.452Z,1.60
2023-08-09T22:26:49.849Z,1.60
2023-08-09T22:29:17.429Z,1.50
2023-08-09T22:31:45.142Z,1.60
2023-08-09T22:34:14.732Z,1.50
2023-08-09T22:36:42.329Z,1.38
2023-08-09T22:39:10.034Z,1.63
2023-08-09T22:41:37.649Z,1.63
2023-08-09T22:44:06.710Z,1.80
2023-08-09T22:46:34.356Z,1.35
2023-08-09T22:49:02.009Z,1.63
2023-08-09T22:51:29.610Z,1.77
2023-08-09T22:53:57.254Z,2.10
2023-08-09T22:56:24.862Z,1.50
2023-08-09T22:58:53.047Z,1.92
2023-08-09T23:01:21.933Z,1.23
2023-08-09T23:03:49.764Z,1.60
2023-08-09T23:06:17.532Z,1.58
2023-08-09T23:08:45.152Z,1.80
2023-08-09T23:11:13.449Z,1.60
2023-08-09T23:13:41.251Z,1.67
2023-08-09T23:16:08.850Z,1.67
2023-08-09T23:18:39.729Z,1.73
2023-08-09T23:21:07.369Z,1.40
2023-08-09T23:23:35.317Z,1.60
2023-08-09T23:26:02.950Z,1.80
2023-08-09T23:28:30.996Z,1.52
2023-08-09T23:31:00.779Z,1.50
2023-08-09T23:33:28.480Z,1.52
2023-08-09T23:35:57.630Z,1.67
2023-08-09T23:38:25.541Z,1.90
2023-08-09T23:40:53.171Z,1.77
2023-08-09T23:43:21.524Z,1.92
2023-08-09T23:45:49.120Z,1.77
2023-08-09T23:48:16.741Z,1.50
2023-08-09T23:50:44.560Z,1.52
2023-08-09T23:53:13.502Z,1.52
2023-08-09T23:55:41.407Z,1.70
2023-08-09T23:58:09.391Z,1.63
